createdAt,value
2023-01-26T00:01:25.460Z,56.70
2023-01-26T00:03:52.544Z,51.97
2023-01-26T00:06:21.303Z,48.17
2023-01-26T00:08:50.583Z,45.50
2023-01-26T00:11:19.974Z,39.97
2023-01-26T00:13:50.392Z,39.60
2023-01-26T00:16:17.613Z,50.75
2023-01-26T00:18:44.642Z,41.97
2023-01-26T00:21:14.415Z,55.08
2023-01-26T00:23:41.762Z,52.08
2023-01-26T00:26:13.343Z,41.83
2023-01-26T00:28:40.440Z,56.28
2023-01-26T00:31:12.339Z,47.38
2023-01-26T00:33:39.796Z,47.03
2023-01-26T00:36:07.349Z,50.83
2023-01-26T00:38:34.900Z,46.95
2023-01-26T00:41:02.089Z,42.65
2023-01-26T00:43:29.101Z,44.83
2023-01-26T00:45:56.255Z,49.47
2023-01-26T00:48:24.792Z,51.83
2023-01-26T00:50:53.336Z,41.40
2023-01-26T00:53:20.409Z,39.67
2023-01-26T00:55:47.594Z,52.45
2023-01-26T00:58:14.531Z,44.70
2023-01-26T01:00:41.624Z,41.97
2023-01-26T01:03:08.817Z,44.53
2023-01-26T01:05:35.942Z,53.08
2023-01-26T01:08:03.036Z,41.92
2023-01-26T01:10:30.972Z,43.67
2023-01-26T01:12:58.018Z,48.05
2023-01-26T01:15:25.552Z,49.90
2023-01-26T01:17:53.092Z,44.05
2023-01-26T01:20:20.330Z,50.80
2023-01-26T01:22:47.406Z,40.67
2023-01-26T01:25:14.514Z,40.90
2023-01-26T01:27:41.854Z,47.17
2023-01-26T01:30:10.106Z,46.25
2023-01-26T01:32:39.777Z,55.55
2023-01-26T01:35:07.887Z,41.40
2023-01-26T01:37:36.781Z,38.88
2023-01-26T01:40:04.047Z,49.60
2023-01-26T01:42:33.141Z,42.67
2023-01-26T01:45:35.869Z,47.90
2023-01-26T01:48:05.223Z,33.47
2023-01-26T01:50:39.693Z,40.28
2023-01-26T01:53:12.010Z,41.92
2023-01-26T01:55:41.425Z,50.42
2023-01-26T01:58:09.466Z,41.53
2023-01-26T02:00:36.562Z,49.67
2023-01-26T02:03:14.753Z,38.05
2023-01-26T02:05:49.324Z,35.15
2023-01-26T02:08:19.315Z,46.53
2023-01-26T02:10:50.295Z,40.75
2023-01-26T02:13:19.032Z,40.67
2023-01-26T02:15:46.799Z,42.42
2023-01-26T02:18:13.974Z,37.47
2023-01-26T02:20:40.962Z,34.75
2023-01-26T02:23:30.197Z,41.65
2023-01-26T02:26:11.374Z,35.42
2023-01-26T02:28:39.819Z,38.50
2023-01-26T02:31:08.241Z,35.10
2023-01-26T02:33:36.291Z,35.97
2023-01-26T02:36:06.451Z,42.88
2023-01-26T02:38:43.838Z,42.80
2023-01-26T02:41:36.693Z,45.05
2023-01-26T02:44:06.892Z,36.22
2023-01-26T02:46:34.502Z,34.83
2023-01-26T02:49:19.981Z,28.92
2023-01-26T02:51:47.309Z,42.65
2023-01-26T02:54:35.190Z,35.40
2023-01-26T02:57:03.009Z,33.85
2023-01-26T02:59:30.124Z,36.70
2023-01-26T03:01:58.148Z,34.47
2023-01-26T03:04:25.254Z,33.35
2023-01-26T03:06:52.776Z,33.47
2023-01-26T03:09:19.752Z,40.05
2023-01-26T03:11:47.983Z,34.33
2023-01-26T03:14:17.051Z,28.88
2023-01-26T03:16:44.218Z,31.30
2023-01-26T03:19:34.802Z,34.72
2023-01-26T03:22:28.786Z,36.95
2023-01-26T03:25:15.617Z,27.70
2023-01-26T03:27:46.519Z,24.65
2023-01-26T03:30:17.153Z,27.52
2023-01-26T03:32:45.656Z,41.20
2023-01-26T03:35:15.534Z,29.75
2023-01-26T03:37:44.156Z,44.80
2023-01-26T03:40:36.518Z,29.52
2023-01-26T03:43:28.147Z,29.05
2023-01-26T03:46:14.474Z,37.40
2023-01-26T03:49:00.771Z,29.67
2023-01-26T03:51:49.622Z,32.50
2023-01-26T03:54:35.417Z,36.28
2023-01-26T03:57:03.594Z,46.38
2023-01-26T03:59:39.341Z,28.08
2023-01-26T04:02:31.560Z,28.05
2023-01-26T04:05:18.393Z,36.67
2023-01-26T04:08:07.258Z,25.73
2023-01-26T04:10:34.481Z,27.67
2023-01-26T04:13:22.642Z,27.92
2023-01-26T04:16:17.415Z,25.83
2023-01-26T04:19:03.087Z,25.80
2023-01-26T04:21:33.291Z,22.65
2023-01-26T04:26:37.547Z,19.33
2023-01-26T04:29:11.496Z,28.77
2023-01-26T04:31:39.589Z,25.23
2023-01-26T04:34:11.508Z,26.45
2023-01-26T04:39:05.997Z,30.30
2023-01-26T04:41:33.209Z,24.73
2023-01-26T04:44:05.222Z,22.92
2023-01-26T04:46:33.365Z,19.65
2023-01-26T04:49:04.858Z,29.08
2023-01-26T04:51:32.211Z,32.13
2023-01-26T04:53:59.336Z,30.98
2023-01-26T04:56:33.256Z,22.17
2023-01-26T04:59:03.646Z,28.05
2023-01-26T05:01:34.502Z,21.85
2023-01-26T05:04:05.729Z,24.17
2023-01-26T05:06:34.021Z,21.05
2023-01-26T05:09:00.981Z,19.48
2023-01-26T05:11:28.815Z,16.13
2023-01-26T05:14:16.100Z,18.35
2023-01-26T05:17:00.592Z,17.58
2023-01-26T05:19:48.963Z,19.27
2023-01-26T05:22:31.806Z,20.17
2023-01-26T05:25:17.646Z,17.10
2023-01-26T05:27:55.010Z,18.02
2023-01-26T05:30:22.318Z,20.20
2023-01-26T05:32:50.606Z,16.20
2023-01-26T05:35:17.746Z,17.02
2023-01-26T05:37:45.913Z,19.40
2023-01-26T05:40:14.397Z,18.08
2023-01-26T05:42:43.969Z,20.73
2023-01-26T05:45:37.268Z,18.20
2023-01-26T05:48:05.753Z,20.23
2023-01-26T05:50:33.045Z,16.65
2023-01-26T05:53:29.387Z,19.88
2023-01-26T05:55:56.668Z,19.90
2023-01-26T05:58:26.679Z,17.33
2023-01-26T06:00:54.398Z,14.38
2023-01-26T06:03:26.913Z,21.65
2023-01-26T06:05:55.366Z,19.13
2023-01-26T06:08:46.049Z,27.30
2023-01-26T06:11:32.905Z,15.02
2023-01-26T06:14:22.568Z,35.03
2023-01-26T06:16:56.875Z,15.20
2023-01-26T06:19:24.858Z,20.88
2023-01-26T06:22:07.648Z,24.52
2023-01-26T06:24:36.466Z,20.25
2023-01-26T06:27:07.123Z,25.98
2023-01-26T06:29:44.828Z,17.15
2023-01-26T06:32:13.871Z,22.25
2023-01-26T06:34:48.257Z,24.63
2023-01-26T06:37:15.434Z,21.38
2023-01-26T06:39:44.427Z,19.85
2023-01-26T06:42:13.045Z,20.60
2023-01-26T06:44:40.274Z,21.05
2023-01-26T06:47:08.009Z,25.17
2023-01-26T06:49:36.172Z,26.25
2023-01-26T06:52:33.582Z,21.50
2023-01-26T06:55:36.001Z,18.10
2023-01-26T06:58:21.987Z,20.20
2023-01-26T07:01:23.297Z,19.95
2023-01-26T07:03:52.037Z,23.55
2023-01-26T07:06:19.372Z,25.20
2023-01-26T07:08:49.571Z,27.67
2023-01-26T07:11:17.458Z,22.52
2023-01-26T07:13:44.613Z,22.73
2023-01-26T07:16:16.664Z,24.30
2023-01-26T07:18:43.840Z,24.77
2023-01-26T07:21:16.444Z,23.50
2023-01-26T07:23:48.553Z,23.05
2023-01-26T07:26:23.969Z,25.35
2023-01-26T07:28:51.020Z,20.05
2023-01-26T07:31:18.459Z,12.48
2023-01-26T07:33:45.736Z,19.50
2023-01-26T07:36:12.969Z,19.63
2023-01-26T07:38:40.033Z,23.15
2023-01-26T07:41:10.036Z,23.45
2023-01-26T07:43:38.148Z,20.27
2023-01-26T07:46:10.805Z,15.93
2023-01-26T07:48:38.716Z,27.27
2023-01-26T07:51:08.495Z,17.80
2023-01-26T07:53:39.470Z,25.33
2023-01-26T07:56:16.654Z,18.15
2023-01-26T07:58:43.690Z,18.52
2023-01-26T08:01:21.502Z,18.85
2023-01-26T08:03:52.078Z,29.65
2023-01-26T08:06:19.743Z,21.80
2023-01-26T08:08:51.116Z,20.00
2023-01-26T08:11:20.575Z,18.75
2023-01-26T08:13:47.747Z,19.55
2023-01-26T08:16:15.169Z,19.17
2023-01-26T08:18:44.764Z,20.80
2023-01-26T08:21:13.354Z,18.48
2023-01-26T08:23:40.702Z,23.50
2023-01-26T08:26:13.539Z,21.70
2023-01-26T08:28:41.378Z,22.55
2023-01-26T08:31:20.761Z,24.27
2023-01-26T08:33:53.378Z,26.23
2023-01-26T08:36:22.563Z,23.73
2023-01-26T08:38:53.951Z,19.35
2023-01-26T08:41:21.009Z,28.30
2023-01-26T08:43:48.602Z,25.23
2023-01-26T08:46:15.872Z,18.17
2023-01-26T08:48:43.159Z,28.35
2023-01-26T08:51:10.497Z,28.35
2023-01-26T08:53:38.179Z,22.58
2023-01-26T08:56:08.120Z,29.95
2023-01-26T08:58:35.718Z,24.17
2023-01-26T09:01:12.159Z,29.85
2023-01-26T09:03:39.746Z,29.35
2023-01-26T09:06:08.733Z,23.00
2023-01-26T09:08:36.700Z,31.55
2023-01-26T09:11:06.602Z,24.75
2023-01-26T09:13:34.540Z,25.42
2023-01-26T09:16:12.770Z,19.52
2023-01-26T09:18:42.669Z,26.00
2023-01-26T09:21:09.980Z,28.63
2023-01-26T09:23:37.628Z,37.25
2023-01-26T09:26:04.684Z,22.08
2023-01-26T09:28:31.724Z,26.42
2023-01-26T09:31:04.118Z,29.52
2023-01-26T09:33:34.056Z,27.63
2023-01-26T09:36:06.280Z,30.35
2023-01-26T09:38:33.767Z,24.95
2023-01-26T09:41:02.703Z,23.98
2023-01-26T09:43:43.650Z,25.45
2023-01-26T09:46:55.808Z,30.40
2023-01-26T09:49:46.921Z,26.02
2023-01-26T09:52:48.404Z,25.03
2023-01-26T09:55:19.555Z,18.45
2023-01-26T09:58:01.703Z,25.77
2023-01-26T10:00:36.632Z,21.30
2023-01-26T10:03:41.578Z,23.13
2023-01-26T10:06:28.527Z,24.52
2023-01-26T10:09:17.240Z,18.42
2023-01-26T10:11:49.434Z,22.13
2023-01-26T10:14:33.489Z,25.02
2023-01-26T10:17:03.911Z,20.50
2023-01-26T10:19:35.978Z,19.85
2023-01-26T10:22:11.680Z,23.25
2023-01-26T10:27:58.086Z,16.25
2023-01-26T10:30:25.798Z,21.42
2023-01-26T10:32:53.442Z,15.55
2023-01-26T10:35:25.819Z,13.32
2023-01-26T10:37:53.319Z,18.60
2023-01-26T10:40:21.280Z,25.05
2023-01-26T10:42:59.356Z,19.50
2023-01-26T10:45:32.149Z,29.30
2023-01-26T10:48:27.275Z,20.98
2023-01-26T10:50:54.401Z,20.52
2023-01-26T10:53:29.625Z,19.42
2023-01-26T10:56:13.533Z,36.03
2023-01-26T10:58:43.473Z,13.73
2023-01-26T11:01:12.515Z,22.60
2023-01-26T11:03:40.250Z,18.40
2023-01-26T11:06:11.689Z,11.05
2023-01-26T11:08:39.554Z,14.27
2023-01-26T11:11:22.045Z,20.45
2023-01-26T11:14:10.385Z,20.90
2023-01-26T11:16:37.815Z,15.45
2023-01-26T11:19:32.666Z,9.32
2023-01-26T11:22:37.549Z,10.23
2023-01-26T11:25:26.607Z,23.77
2023-01-26T11:28:25.478Z,7.43
2023-01-26T11:31:01.497Z,12.80
2023-01-26T11:33:46.693Z,15.18
2023-01-26T11:36:22.325Z,13.95
2023-01-26T11:39:17.945Z,6.35
2023-01-26T11:42:06.015Z,12.68
2023-01-26T11:44:47.978Z,10.88
2023-01-26T11:47:56.296Z,9.98
2023-01-26T11:50:33.204Z,13.02
2023-01-26T11:53:20.374Z,8.77
2023-01-26T11:56:17.136Z,8.98
2023-01-26T11:59:03.264Z,12.48
2023-01-26T12:01:43.561Z,7.63
2023-01-26T12:04:19.136Z,10.88
2023-01-26T12:06:53.665Z,10.40
2023-01-26T12:09:32.725Z,19.60
2023-01-26T12:12:37.388Z,10.60
2023-01-26T12:15:23.912Z,16.30
2023-01-26T12:18:00.353Z,12.27
2023-01-26T12:20:45.820Z,14.10
2023-01-26T12:23:38.497Z,14.77
2023-01-26T12:26:16.185Z,5.78
2023-01-26T12:28:51.807Z,8.10
2023-01-26T12:31:34.374Z,6.10
2023-01-26T12:34:01.647Z,7.10
2023-01-26T12:37:19.516Z,11.85
2023-01-26T12:40:01.617Z,10.20
2023-01-26T12:42:48.703Z,4.72
2023-01-26T12:45:20.758Z,6.50
2023-01-26T12:47:50.164Z,10.70
2023-01-26T12:50:26.358Z,3.72
2023-01-26T12:53:02.246Z,9.30
2023-01-26T12:55:36.147Z,11.48
2023-01-26T12:58:09.997Z,4.25
2023-01-26T13:00:38.952Z,8.85
2023-01-26T13:03:22.753Z,7.30
2023-01-26T13:05:58.721Z,6.85
2023-01-26T13:08:31.508Z,9.18
2023-01-26T13:11:00.852Z,8.27
2023-01-26T13:13:36.123Z,7.97
2023-01-26T13:16:15.576Z,8.32
2023-01-26T13:18:49.788Z,6.63
2023-01-26T13:21:38.512Z,6.97
2023-01-26T13:24:34.276Z,11.50
2023-01-26T13:27:01.393Z,8.77
2023-01-26T13:29:32.825Z,13.35
2023-01-26T13:32:19.765Z,6.68
2023-01-26T13:35:03.096Z,7.68
2023-01-26T13:37:42.969Z,7.75
2023-01-26T13:40:35.339Z,5.05
2023-01-26T13:43:25.686Z,5.38
2023-01-26T13:46:24.687Z,8.83
2023-01-26T13:48:56.167Z,4.43
2023-01-26T13:51:30.102Z,6.50
2023-01-26T13:54:14.371Z,11.30
2023-01-26T13:57:06.874Z,6.93
2023-01-26T13:59:34.276Z,5.10
2023-01-26T14:02:02.134Z,6.57
2023-01-26T14:04:31.451Z,14.10
2023-01-26T14:07:14.519Z,7.93
2023-01-26T14:09:50.769Z,5.78
2023-01-26T14:12:27.645Z,6.85
2023-01-26T14:15:00.328Z,6.28
2023-01-26T14:17:33.358Z,10.35
2023-01-26T14:20:03.688Z,4.40
2023-01-26T14:22:30.817Z,6.93
2023-01-26T14:24:57.959Z,2.50
2023-01-26T14:27:37.656Z,4.50
2023-01-26T14:30:26.891Z,4.60
2023-01-26T14:33:07.830Z,4.50
2023-01-26T14:35:38.155Z,4.93
2023-01-26T14:38:13.805Z,11.98
2023-01-26T14:40:45.731Z,5.80
2023-01-26T14:43:14.789Z,3.35
2023-01-26T14:45:49.359Z,2.40
2023-01-26T14:48:20.639Z,3.08
2023-01-26T14:50:48.739Z,4.55
2023-01-26T14:53:23.819Z,6.93
2023-01-26T14:55:52.116Z,6.43
2023-01-26T14:58:27.442Z,2.75
2023-01-26T15:00:58.257Z,3.92
2023-01-26T15:03:33.184Z,5.30
2023-01-26T15:06:06.070Z,8.85
2023-01-26T15:08:39.107Z,2.85
2023-01-26T15:11:28.078Z,2.67
2023-01-26T15:13:56.086Z,0.85
2023-01-26T15:16:25.249Z,4.22
2023-01-26T15:19:01.067Z,5.53
2023-01-26T15:21:43.748Z,5.18
2023-01-26T15:24:14.742Z,5.30
2023-01-26T15:26:44.541Z,6.85
2023-01-26T15:29:30.819Z,4.13
2023-01-26T15:31:58.883Z,3.50
2023-01-26T15:34:42.112Z,12.40
2023-01-26T15:37:29.232Z,8.43
2023-01-26T15:39:59.211Z,1.45
2023-01-26T15:42:30.182Z,5.00
2023-01-26T15:44:57.727Z,6.00
2023-01-26T15:47:25.148Z,5.32
2023-01-26T15:49:52.304Z,4.75
2023-01-26T15:52:30.497Z,15.35
2023-01-26T15:54:57.905Z,6.57
2023-01-26T15:57:24.863Z,8.52
2023-01-26T15:59:52.060Z,8.00
2023-01-26T16:02:20.891Z,2.08
2023-01-26T16:04:48.244Z,3.53
2023-01-26T16:07:17.982Z,5.78
2023-01-26T16:09:45.164Z,11.52
2023-01-26T16:12:36.236Z,3.10
2023-01-26T16:15:11.313Z,5.50
2023-01-26T16:17:38.547Z,2.67
2023-01-26T16:20:06.068Z,2.72
2023-01-26T16:22:51.469Z,7.30
2023-01-26T16:25:33.497Z,2.08
2023-01-26T16:30:27.678Z,3.38
2023-01-26T16:32:55.072Z,3.30
2023-01-26T16:35:23.993Z,4.07
2023-01-26T16:37:51.295Z,8.43
2023-01-26T16:40:19.634Z,4.72
2023-01-26T16:43:08.123Z,4.75
2023-01-26T16:45:35.229Z,5.30
2023-01-26T16:48:02.237Z,3.90
2023-01-26T16:50:31.548Z,8.18
2023-01-26T16:56:20.305Z,3.42
2023-01-26T16:58:47.635Z,3.45
2023-01-26T17:01:20.661Z,5.00
2023-01-26T17:04:41.516Z,3.35
2023-01-26T17:07:08.625Z,5.38
2023-01-26T17:09:40.031Z,1.88
2023-01-26T17:12:07.700Z,6.50
2023-01-26T17:14:34.771Z,1.95
2023-01-26T17:17:01.924Z,2.25
2023-01-26T17:19:28.920Z,2.53
2023-01-26T17:21:55.957Z,2.47
2023-01-26T17:24:23.142Z,1.67
2023-01-26T17:26:50.240Z,1.48
2023-01-26T17:29:17.215Z,4.82
2023-01-26T17:31:44.419Z,2.13
2023-01-26T17:34:11.506Z,2.65
2023-01-26T17:36:38.956Z,3.38
2023-01-26T17:39:06.245Z,4.78
2023-01-26T17:41:33.230Z,3.67
2023-01-26T17:44:02.990Z,4.88
2023-01-26T17:46:30.014Z,7.13
2023-01-26T17:48:57.016Z,6.15
2023-01-26T17:51:24.199Z,4.35
2023-01-26T17:53:51.283Z,8.88
2023-01-26T17:56:20.898Z,5.72
2023-01-26T17:58:50.430Z,6.15
2023-01-26T18:01:18.460Z,8.32
2023-01-26T18:03:46.230Z,3.08
2023-01-26T18:06:13.478Z,5.13
2023-01-26T18:08:41.106Z,2.20
2023-01-26T18:11:10.860Z,4.32
2023-01-26T18:13:38.341Z,8.45
2023-01-26T18:16:07.051Z,6.82
2023-01-26T18:18:34.555Z,5.38
2023-01-26T18:21:13.507Z,3.80
2023-01-26T18:23:43.282Z,5.10
2023-01-26T18:26:10.446Z,3.13
2023-01-26T18:28:39.220Z,5.00
2023-01-26T18:31:14.719Z,8.05
2023-01-26T18:33:41.901Z,7.13
2023-01-26T18:36:11.983Z,4.13
2023-01-26T18:38:42.144Z,2.90
2023-01-26T18:41:14.442Z,5.15
2023-01-26T18:43:48.348Z,6.43
2023-01-26T18:46:15.595Z,2.30
2023-01-26T18:48:42.768Z,3.38
2023-01-26T18:51:10.228Z,12.32
2023-01-26T18:53:41.044Z,4.28
2023-01-26T18:56:11.571Z,6.85
2023-01-26T18:58:40.191Z,7.55
2023-01-26T19:01:10.616Z,3.17
2023-01-26T19:03:38.420Z,6.32
2023-01-26T19:06:06.238Z,3.63
2023-01-26T19:08:34.564Z,3.63
2023-01-26T19:11:07.034Z,10.77
2023-01-26T19:13:34.625Z,16.58
2023-01-26T19:16:01.724Z,5.15
2023-01-26T19:18:29.815Z,3.80
2023-01-26T19:21:02.907Z,5.18
2023-01-26T19:23:30.190Z,4.05
2023-01-26T19:25:57.464Z,4.63
2023-01-26T19:28:24.536Z,6.93
2023-01-26T19:30:51.683Z,3.28
2023-01-26T19:33:24.445Z,7.72
2023-01-26T19:35:52.594Z,3.15
2023-01-26T19:38:20.467Z,5.18
2023-01-26T19:40:49.599Z,4.68
2023-01-26T19:43:19.099Z,3.35
2023-01-26T19:45:50.741Z,4.15
2023-01-26T19:48:17.985Z,3.83
2023-01-26T19:50:45.043Z,12.43
2023-01-26T19:53:12.092Z,6.40
2023-01-26T19:55:39.268Z,6.40
2023-01-26T19:58:06.315Z,8.23
2023-01-26T20:00:33.254Z,7.78
2023-01-26T20:03:00.806Z,6.88
2023-01-26T20:05:27.895Z,2.72
2023-01-26T20:07:54.920Z,7.07
2023-01-26T20:10:22.023Z,8.27
2023-01-26T20:12:49.251Z,4.72
2023-01-26T20:15:16.243Z,6.55
2023-01-26T20:17:43.333Z,4.93
2023-01-26T20:20:12.489Z,4.90
2023-01-26T20:22:40.321Z,5.13
2023-01-26T20:25:11.612Z,4.80
2023-01-26T20:27:38.922Z,6.22
2023-01-26T20:30:06.769Z,4.55
2023-01-26T20:32:34.804Z,11.68
2023-01-26T20:35:02.477Z,8.63
2023-01-26T20:37:32.463Z,8.57
2023-01-26T20:39:59.887Z,4.40
2023-01-26T20:42:27.745Z,3.83
2023-01-26T20:44:55.631Z,11.13
2023-01-26T20:47:22.980Z,5.90
2023-01-26T20:49:50.872Z,5.82
2023-01-26T20:52:17.909Z,5.30
2023-01-26T20:54:45.227Z,13.43
2023-01-26T20:57:12.286Z,9.50
2023-01-26T20:59:40.241Z,7.88
2023-01-26T21:02:12.098Z,6.05
2023-01-26T21:07:08.812Z,9.70
2023-01-26T21:09:36.087Z,6.47
2023-01-26T21:12:03.240Z,4.10
2023-01-26T21:14:30.243Z,3.95
2023-01-26T21:16:57.470Z,12.73
2023-01-26T21:19:24.534Z,9.88
2023-01-26T21:21:51.799Z,6.00
2023-01-26T21:24:19.022Z,5.95
2023-01-26T21:26:48.987Z,5.47
2023-01-26T21:29:17.145Z,7.30
2023-01-26T21:31:48.902Z,12.30
2023-01-26T21:36:43.108Z,6.03
2023-01-26T21:39:14.975Z,8.05
2023-01-26T21:41:56.979Z,10.05
2023-01-26T21:47:03.993Z,9.20
2023-01-26T21:49:31.165Z,6.53
2023-01-26T21:52:17.372Z,3.22
2023-01-26T21:54:44.502Z,10.13
2023-01-26T21:57:32.138Z,8.02
2023-01-26T21:59:59.597Z,5.93
2023-01-26T22:02:26.700Z,8.90
2023-01-26T22:04:53.867Z,2.70
2023-01-26T22:07:21.683Z,4.90
2023-01-26T22:09:48.971Z,6.82
2023-01-26T22:12:16.630Z,5.82
2023-01-26T22:14:43.752Z,8.52
2023-01-26T22:17:10.664Z,9.70
2023-01-26T22:19:37.792Z,7.68
2023-01-26T22:22:05.041Z,6.18
2023-01-26T22:24:32.142Z,5.05
2023-01-26T22:26:59.123Z,16.95
2023-01-26T22:29:26.185Z,9.30
2023-01-26T22:31:53.369Z,7.65
2023-01-26T22:34:20.421Z,7.13
2023-01-26T22:36:47.789Z,6.07
2023-01-26T22:39:14.682Z,4.72
2023-01-26T22:41:41.690Z,7.47
2023-01-26T22:44:08.886Z,7.88
2023-01-26T22:46:36.902Z,8.77
2023-01-26T22:49:04.997Z,5.00
2023-01-26T22:51:37.304Z,9.60
2023-01-26T22:54:05.310Z,5.30
2023-01-26T22:56:32.490Z,8.82
2023-01-26T22:59:00.865Z,8.70
2023-01-26T23:01:32.992Z,7.95
2023-01-26T23:04:00.782Z,11.07
2023-01-26T23:06:28.427Z,9.68
2023-01-26T23:08:55.724Z,10.65
2023-01-26T23:11:28.308Z,5.75
2023-01-26T23:13:56.662Z,2.25
2023-01-26T23:16:25.006Z,10.50
2023-01-26T23:18:53.977Z,11.73
2023-01-26T23:21:21.380Z,7.95
2023-01-26T23:23:48.631Z,8.05
2023-01-26T23:26:16.080Z,13.32
2023-01-26T23:28:44.579Z,10.85
2023-01-26T23:31:13.457Z,4.82
2023-01-26T23:33:41.024Z,5.28
2023-01-26T23:36:10.149Z,16.67
2023-01-26T23:38:37.576Z,11.63
2023-01-26T23:41:08.585Z,10.88
2023-01-26T23:43:35.866Z,6.10
2023-01-26T23:46:03.378Z,8.85
2023-01-26T23:48:30.771Z,10.00
2023-01-26T23:51:00.086Z,3.80
2023-01-26T23:53:28.299Z,4.13
2023-01-26T23:55:55.822Z,4.63
2023-01-26T23:58:22.842Z,6.38
